createdAt,value
2019-04-11T00:00:58.001Z,10.90
2019-04-11T00:03:27.154Z,10.50
2019-04-11T00:05:55.610Z,10.77
2019-04-11T00:08:24.081Z,10.60
2019-04-11T00:10:53.495Z,10.53
2019-04-11T00:13:25.646Z,10.53
2019-04-11T00:15:52.969Z,10.80
2019-04-11T00:18:21.422Z,10.80
2019-04-11T00:20:50.611Z,10.40
2019-04-11T00:23:19.225Z,10.43
2019-04-11T00:25:47.643Z,10.67
2019-04-11T00:28:16.049Z,10.93
2019-04-11T00:30:45.105Z,10.53
2019-04-11T00:33:13.987Z,10.80
2019-04-11T00:35:42.413Z,10.90
2019-04-11T00:38:11.757Z,10.87
2019-04-11T00:40:40.251Z,10.67
2019-04-11T00:43:09.477Z,10.57
2019-04-11T00:45:38.114Z,10.47
2019-04-11T00:48:06.593Z,10.57
2019-04-11T00:53:12.372Z,11.10
2019-04-11T00:55:41.791Z,11.10
2019-04-11T00:58:10.310Z,11.30
2019-04-11T01:00:39.741Z,11.23
2019-04-11T01:03:09.597Z,11.30
2019-04-11T01:05:39.342Z,11.20
2019-04-11T01:08:08.324Z,11.43
2019-04-11T01:10:36.753Z,10.70
2019-04-11T01:13:05.168Z,11.47
2019-04-11T01:15:33.622Z,11.20
2019-04-11T01:18:02.038Z,11.80
2019-04-11T01:20:31.333Z,11.67
2019-04-11T01:22:59.938Z,11.10
2019-04-11T01:25:28.485Z,11.27
2019-04-11T01:27:56.989Z,11.80
2019-04-11T01:30:29.082Z,10.83
2019-04-11T01:32:59.000Z,11.27
2019-04-11T01:35:27.486Z,11.77
2019-04-11T01:37:55.966Z,11.47
2019-04-11T01:40:25.483Z,11.17
2019-04-11T01:42:53.970Z,10.33
2019-04-11T01:45:23.918Z,11.40
2019-04-11T01:47:57.401Z,11.87
2019-04-11T01:50:27.566Z,11.53
2019-04-11T01:52:56.290Z,11.73
2019-04-11T01:55:26.017Z,11.73
2019-04-11T01:57:54.602Z,10.80
2019-04-11T02:00:42.670Z,11.40
2019-04-11T02:03:12.939Z,11.67
2019-04-11T02:05:41.398Z,11.23
2019-04-11T02:08:11.196Z,11.50
2019-04-11T02:10:39.737Z,11.23
2019-04-11T02:13:08.162Z,11.03
2019-04-11T02:15:36.726Z,11.67
2019-04-11T02:18:05.460Z,11.30
2019-04-11T02:20:33.945Z,11.50
2019-04-11T02:23:04.637Z,11.00
2019-04-11T02:25:50.627Z,11.33
2019-04-11T02:28:20.280Z,11.90
2019-04-11T02:30:54.159Z,11.23
2019-04-11T02:33:24.782Z,11.80
2019-04-11T02:35:54.358Z,11.60
2019-04-11T02:38:24.319Z,11.50
2019-04-11T02:40:54.868Z,11.80
2019-04-11T02:43:25.231Z,12.03
2019-04-11T02:46:09.047Z,11.90
2019-04-11T02:48:24.581Z,11.77
2019-04-11T02:50:54.257Z,12.27
2019-04-11T02:53:24.504Z,12.03
2019-04-11T02:55:54.192Z,11.93
2019-04-11T02:58:24.934Z,11.90
2019-04-11T03:00:55.373Z,11.93
2019-04-11T03:03:23.477Z,11.57
2019-04-11T03:05:53.327Z,11.33
2019-04-11T03:08:22.745Z,12.00
2019-04-11T03:10:53.604Z,11.33
2019-04-11T03:13:23.281Z,12.63
2019-04-11T03:16:07.383Z,11.83
2019-04-11T03:18:40.278Z,11.90
2019-04-11T03:20:56.639Z,12.20
2019-04-11T03:23:23.563Z,11.50
2019-04-11T03:25:54.342Z,12.17
2019-04-11T03:28:27.641Z,11.87
2019-04-11T03:31:22.340Z,12.90
2019-04-11T03:34:18.152Z,12.27
2019-04-11T03:38:46.556Z,12.27
2019-04-11T03:41:10.258Z,12.10
2019-04-11T03:43:36.574Z,12.90
2019-04-11T03:48:47.172Z,12.57
2019-04-11T03:51:08.631Z,13.23
2019-04-11T03:53:37.318Z,12.47
2019-04-11T03:56:07.607Z,12.50
2019-04-11T03:58:37.172Z,11.93
2019-04-11T04:01:08.512Z,12.53
2019-04-11T04:03:37.394Z,12.53
2019-04-11T04:06:07.277Z,12.60
2019-04-11T04:08:38.563Z,12.53
2019-04-11T04:11:09.192Z,12.77
2019-04-11T04:13:39.954Z,12.87
2019-04-11T04:16:27.444Z,13.37
2019-04-11T04:18:54.247Z,13.03
2019-04-11T04:21:35.139Z,13.13
2019-04-11T04:24:06.241Z,13.53
2019-04-11T04:26:35.585Z,13.37
2019-04-11T04:29:04.520Z,13.17
2019-04-11T04:31:33.004Z,12.77
2019-04-11T04:34:02.005Z,13.17
2019-04-11T04:36:32.839Z,13.20
2019-04-11T04:39:02.093Z,13.43
2019-04-11T04:41:39.258Z,12.60
2019-04-11T04:44:03.994Z,12.80
2019-04-11T04:46:47.041Z,13.90
2019-04-11T04:49:04.653Z,13.30
2019-04-11T04:51:33.272Z,13.13
2019-04-11T04:54:04.002Z,13.77
2019-04-11T04:56:34.798Z,13.33
2019-04-11T04:59:04.251Z,13.57
2019-04-11T05:01:32.928Z,13.33
2019-04-11T05:04:02.210Z,12.30
2019-04-11T05:06:32.202Z,13.03
2019-04-11T05:09:00.828Z,13.53
2019-04-11T05:11:30.534Z,13.03
2019-04-11T05:14:00.733Z,13.53
2019-04-11T05:16:29.871Z,13.30
2019-04-11T05:18:59.454Z,13.50
2019-04-11T05:21:27.926Z,12.63
2019-04-11T05:23:56.688Z,12.90
2019-04-11T05:26:25.663Z,13.20
2019-04-11T05:28:55.229Z,13.20
2019-04-11T05:31:24.714Z,13.10
2019-04-11T05:33:53.890Z,13.60
2019-04-11T05:36:22.709Z,14.13
2019-04-11T05:38:51.289Z,13.60
2019-04-11T05:41:21.406Z,13.47
2019-04-11T05:43:51.447Z,13.20
2019-04-11T05:46:31.053Z,13.77
2019-04-11T05:49:02.269Z,12.87
2019-04-11T05:51:36.955Z,13.57
2019-04-11T05:54:06.146Z,14.37
2019-04-11T05:56:33.941Z,13.93
2019-04-11T05:59:03.982Z,13.83
2019-04-11T06:01:42.867Z,13.43
2019-04-11T06:04:15.363Z,13.33
2019-04-11T06:07:01.625Z,14.27
2019-04-11T06:09:34.811Z,13.80
2019-04-11T06:12:15.237Z,13.60
2019-04-11T06:15:00.084Z,14.27
2019-04-11T06:17:28.512Z,13.27
2019-04-11T06:20:11.575Z,13.63
2019-04-11T06:22:42.811Z,13.40
2019-04-11T06:25:30.900Z,14.10
2019-04-11T06:28:04.097Z,13.53
2019-04-11T06:30:42.989Z,13.57
2019-04-11T06:33:16.459Z,13.17
2019-04-11T06:38:32.701Z,13.40
2019-04-11T06:41:02.976Z,14.30
2019-04-11T06:43:40.390Z,13.53
2019-04-11T06:46:13.254Z,13.97
2019-04-11T06:48:56.110Z,13.93
2019-04-11T06:51:28.859Z,13.67
2019-04-11T06:54:14.994Z,13.37
2019-04-11T06:56:45.496Z,14.03
2019-04-11T06:59:16.410Z,13.47
2019-04-11T07:01:47.486Z,13.43
2019-04-11T07:04:23.203Z,14.33
2019-04-11T07:06:53.727Z,14.10
2019-04-11T07:09:30.826Z,14.33
2019-04-11T07:12:01.384Z,14.40
2019-04-11T07:14:37.579Z,14.33
2019-04-11T07:17:23.698Z,15.00
2019-04-11T07:20:10.807Z,14.93
2019-04-11T07:22:57.536Z,14.83
2019-04-11T07:25:43.046Z,14.03
2019-04-11T07:28:18.801Z,15.57
2019-04-11T07:31:04.819Z,14.03
2019-04-11T07:33:44.967Z,14.70
2019-04-11T07:36:31.661Z,14.70
2019-04-11T07:39:07.955Z,15.27
2019-04-11T07:41:38.961Z,14.80
2019-04-11T07:44:09.810Z,15.30
2019-04-11T07:46:51.629Z,14.97
2019-04-11T07:49:30.718Z,14.40
2019-04-11T07:52:01.047Z,14.90
2019-04-11T07:54:30.315Z,15.43
2019-04-11T07:57:12.987Z,15.90
2019-04-11T07:59:46.720Z,15.17
2019-04-11T08:02:20.505Z,14.43
2019-04-11T08:05:00.326Z,15.33
2019-04-11T08:07:42.710Z,15.80
2019-04-11T08:10:16.022Z,14.57
2019-04-11T08:12:46.057Z,15.77
2019-04-11T08:15:33.490Z,14.60
2019-04-11T08:18:04.037Z,14.83
2019-04-11T08:20:50.366Z,16.10
2019-04-11T08:23:21.372Z,15.30
2019-04-11T08:26:07.883Z,15.27
2019-04-11T08:28:37.334Z,15.50
2019-04-11T08:31:16.155Z,15.87
2019-04-11T08:33:44.706Z,16.07
2019-04-11T08:36:15.782Z,15.60
2019-04-11T08:38:44.759Z,16.60
2019-04-11T08:41:15.576Z,16.20
2019-04-11T08:43:44.067Z,16.60
2019-04-11T08:46:16.933Z,15.63
2019-04-11T08:48:53.078Z,16.13
2019-04-11T08:51:23.328Z,16.50
2019-04-11T08:54:09.510Z,15.83
2019-04-11T08:56:39.942Z,15.73
2019-04-11T08:59:30.945Z,16.30
2019-04-11T09:02:00.395Z,16.57
2019-04-11T09:04:46.835Z,16.70
2019-04-11T09:07:19.634Z,15.60
2019-04-11T09:09:49.740Z,15.90
2019-04-11T09:12:18.490Z,16.00
2019-04-11T09:14:57.665Z,16.73
2019-04-11T09:17:30.570Z,16.33
2019-04-11T09:20:16.583Z,16.07
2019-04-11T09:22:47.117Z,17.10
2019-04-11T09:25:23.333Z,16.80
2019-04-11T09:28:09.148Z,17.30
2019-04-11T09:30:54.895Z,16.43
2019-04-11T09:33:41.485Z,16.85
2019-04-11T09:36:28.965Z,17.02
2019-04-11T09:39:02.904Z,17.42
2019-04-11T09:41:47.667Z,17.20
2019-04-11T09:44:20.658Z,17.65
2019-04-11T09:47:07.544Z,16.42
2019-04-11T09:49:40.450Z,16.60
2019-04-11T09:52:10.522Z,16.55
2019-04-11T09:54:52.695Z,16.70
2019-04-11T09:57:25.350Z,16.52
2019-04-11T09:59:56.068Z,16.02
2019-04-11T10:02:33.257Z,16.93
2019-04-11T10:05:03.438Z,17.75
2019-04-11T10:07:50.310Z,16.73
2019-04-11T10:10:29.378Z,16.70
2019-04-11T10:13:05.213Z,17.15
2019-04-11T10:15:35.594Z,16.42
2019-04-11T10:18:26.132Z,17.57
2019-04-11T10:20:53.013Z,18.27
2019-04-11T10:23:23.121Z,18.52
2019-04-11T10:25:53.719Z,17.80
2019-04-11T10:28:39.775Z,17.77
2019-04-11T10:31:10.270Z,16.85
2019-04-11T10:33:43.336Z,17.80
2019-04-11T10:36:23.158Z,18.23
2019-04-11T10:39:11.120Z,18.92
2019-04-11T10:41:42.058Z,19.10
2019-04-11T10:44:12.217Z,18.65
2019-04-11T10:46:57.787Z,18.75
2019-04-11T10:49:36.627Z,18.07
2019-04-11T10:52:24.874Z,18.50
2019-04-11T10:55:03.703Z,17.80
2019-04-11T10:57:34.078Z,18.42
2019-04-11T11:00:05.068Z,18.82
2019-04-11T11:02:47.462Z,18.95
2019-04-11T11:05:19.127Z,19.73
2019-04-11T11:07:48.898Z,19.52
2019-04-11T11:10:21.901Z,19.95
2019-04-11T11:12:54.574Z,19.45
2019-04-11T11:15:25.337Z,20.60
2019-04-11T11:18:38.175Z,19.73
2019-04-11T11:20:50.161Z,19.07
2019-04-11T11:23:32.979Z,19.07
2019-04-11T11:26:12.653Z,18.85
2019-04-11T11:28:43.145Z,18.77
2019-04-11T11:31:22.368Z,19.25
2019-04-11T11:33:51.651Z,20.55
2019-04-11T11:36:38.103Z,20.72
2019-04-11T11:39:24.745Z,19.60
2019-04-11T11:42:12.287Z,20.17
2019-04-11T11:44:55.267Z,19.17
2019-04-11T11:47:42.099Z,20.52
2019-04-11T11:50:25.083Z,19.55
2019-04-11T11:53:13.252Z,19.27
2019-04-11T11:55:43.329Z,18.92
2019-04-11T11:58:29.937Z,17.95
2019-04-11T12:01:03.590Z,19.55
2019-04-11T12:03:48.752Z,19.05
2019-04-11T12:06:22.218Z,19.55
2019-04-11T12:09:07.109Z,20.30
2019-04-11T12:11:37.947Z,19.82
2019-04-11T12:14:24.318Z,19.30
2019-04-11T12:17:06.801Z,19.02
2019-04-11T12:20:04.841Z,18.62
2019-04-11T12:22:26.991Z,19.20
2019-04-11T12:24:57.060Z,18.48
2019-04-11T12:27:27.133Z,18.32
2019-04-11T12:30:02.700Z,18.60
2019-04-11T12:32:49.879Z,19.70
2019-04-11T12:35:27.074Z,19.73
2019-04-11T12:37:57.913Z,18.92
2019-04-11T12:40:37.216Z,20.27
2019-04-11T12:43:07.271Z,19.23
2019-04-11T12:45:55.290Z,20.68
2019-04-11T12:48:25.592Z,18.95
2019-04-11T12:51:01.414Z,19.80
2019-04-11T12:53:29.838Z,19.12
2019-04-11T12:56:02.756Z,19.17
2019-04-11T12:58:38.855Z,19.65
2019-04-11T13:01:26.791Z,18.85
2019-04-11T13:04:12.795Z,19.50
2019-04-11T13:06:42.855Z,19.52
2019-04-11T13:09:30.978Z,18.67
2019-04-11T13:12:06.666Z,19.15
2019-04-11T13:14:36.861Z,19.98
2019-04-11T13:17:09.578Z,20.45
2019-04-11T13:20:04.589Z,19.57
2019-04-11T13:22:28.040Z,20.17
2019-04-11T13:25:12.941Z,20.17
2019-04-11T13:27:43.010Z,19.27
2019-04-11T13:30:29.138Z,19.80
2019-04-11T13:32:58.034Z,20.00
2019-04-11T13:35:28.165Z,20.08
2019-04-11T13:38:17.292Z,19.05
2019-04-11T13:40:48.456Z,19.23
2019-04-11T13:43:36.145Z,20.32
2019-04-11T13:46:06.353Z,20.52
2019-04-11T13:48:47.966Z,20.90
2019-04-11T13:51:18.339Z,20.32
2019-04-11T13:53:50.970Z,21.25
2019-04-11T13:56:21.042Z,20.75
2019-04-11T13:59:09.582Z,20.20
2019-04-11T14:01:39.678Z,20.92
2019-04-11T14:04:09.739Z,21.17
2019-04-11T14:06:38.186Z,20.37
2019-04-11T14:09:09.584Z,20.77
2019-04-11T14:11:39.793Z,20.15
2019-04-11T14:14:15.814Z,20.70
2019-04-11T14:17:03.866Z,19.60
2019-04-11T14:19:50.267Z,20.27
2019-04-11T14:22:21.753Z,20.95
2019-04-11T14:25:03.946Z,20.52
2019-04-11T14:27:32.641Z,20.23
2019-04-11T14:30:05.251Z,20.70
2019-04-11T14:32:35.335Z,20.47
2019-04-11T14:35:14.210Z,20.25
2019-04-11T14:37:44.592Z,19.15
2019-04-11T14:40:18.752Z,19.12
2019-04-11T14:42:54.325Z,19.27
2019-04-11T14:45:42.131Z,18.60
2019-04-11T14:48:27.075Z,19.42
2019-04-11T14:51:02.715Z,20.08
2019-04-11T14:53:41.698Z,19.40
2019-04-11T14:56:14.492Z,18.92
2019-04-11T14:59:00.394Z,18.57
2019-04-11T15:01:30.194Z,18.77
2019-04-11T15:04:00.278Z,18.27
2019-04-11T15:06:31.459Z,18.82
2019-04-11T15:09:10.942Z,18.45
2019-04-11T15:11:49.619Z,18.73
2019-04-11T15:14:35.633Z,18.55
2019-04-11T15:17:08.613Z,17.52
2019-04-11T15:19:37.045Z,18.17
2019-04-11T15:22:07.118Z,17.92
2019-04-11T15:24:37.625Z,17.52
2019-04-11T15:27:23.822Z,17.57
2019-04-11T15:29:53.015Z,16.87
2019-04-11T15:32:35.290Z,17.00
2019-04-11T15:35:04.079Z,16.85
2019-04-11T15:37:45.908Z,16.00
2019-04-11T15:40:15.894Z,18.30
2019-04-11T15:42:51.840Z,18.05
2019-04-11T15:45:33.902Z,18.45
2019-04-11T15:48:12.940Z,17.50
2019-04-11T15:51:06.602Z,17.87
2019-04-11T15:53:34.775Z,17.77
2019-04-11T15:56:21.265Z,18.07
2019-04-11T15:58:54.298Z,18.87
2019-04-11T16:01:42.268Z,18.02
2019-04-11T16:04:15.225Z,18.32
2019-04-11T16:06:45.282Z,17.55
2019-04-11T16:09:14.570Z,17.32
2019-04-11T16:11:44.794Z,18.12
2019-04-11T16:14:13.282Z,17.50
2019-04-11T16:16:55.375Z,17.52
2019-04-11T16:19:43.281Z,16.95
2019-04-11T16:22:19.333Z,17.98
2019-04-11T16:24:51.165Z,17.70
2019-04-11T16:27:21.334Z,16.75
2019-04-11T16:29:51.574Z,17.35
2019-04-11T16:32:21.901Z,18.27
2019-04-11T16:35:08.060Z,17.62
2019-04-11T16:37:36.535Z,18.10
2019-04-11T16:40:08.126Z,17.95
2019-04-11T16:42:38.245Z,17.65
2019-04-11T16:45:25.052Z,17.07
2019-04-11T16:48:02.371Z,17.37
2019-04-11T16:50:30.783Z,17.12
2019-04-11T16:52:59.189Z,16.73
2019-04-11T16:55:27.785Z,16.47
2019-04-11T16:57:56.374Z,16.10
2019-04-11T17:00:24.790Z,16.75
2019-04-11T17:02:55.043Z,16.85
2019-04-11T17:05:24.077Z,16.85
2019-04-11T17:07:56.150Z,16.60
2019-04-11T17:10:43.062Z,15.68
2019-04-11T17:13:11.482Z,15.53
2019-04-11T17:15:39.898Z,16.37
2019-04-11T17:18:08.388Z,15.60
2019-04-11T17:20:39.571Z,15.80
2019-04-11T17:23:06.938Z,14.77
2019-04-11T17:25:35.538Z,15.83
2019-04-11T17:28:03.962Z,15.63
2019-04-11T17:30:32.390Z,15.38
2019-04-11T17:33:00.861Z,14.98
2019-04-11T17:35:31.577Z,15.80
2019-04-11T17:38:01.112Z,17.47
2019-04-11T17:40:29.739Z,15.33
2019-04-11T17:42:58.162Z,13.60
2019-04-11T17:45:26.581Z,14.33
2019-04-11T17:47:57.282Z,16.57
2019-04-11T17:50:25.364Z,14.67
2019-04-11T17:52:54.731Z,15.10
2019-04-11T17:55:24.489Z,15.73
2019-04-11T17:57:54.882Z,15.17
2019-04-11T18:00:29.599Z,15.10
2019-04-11T18:02:54.998Z,15.20
2019-04-11T18:05:23.420Z,15.33
2019-04-11T18:07:51.844Z,15.40
2019-04-11T18:10:20.326Z,14.57
2019-04-11T18:12:48.746Z,16.20
2019-04-11T18:15:17.227Z,15.30
2019-04-11T18:17:45.822Z,14.73
2019-04-11T18:20:14.522Z,15.33
2019-04-11T18:22:43.779Z,15.73
2019-04-11T18:25:13.610Z,15.53
2019-04-11T18:27:42.042Z,15.00
2019-04-11T18:30:12.078Z,15.17
2019-04-11T18:32:40.838Z,14.40
2019-04-11T18:35:09.694Z,15.77
2019-04-11T18:37:38.351Z,15.47
2019-04-11T18:40:10.285Z,15.80
2019-04-11T18:42:37.878Z,15.20
2019-04-11T18:45:08.230Z,14.33
2019-04-11T18:47:37.361Z,15.30
2019-04-11T18:50:07.799Z,14.40
2019-04-11T18:52:36.281Z,14.40
2019-04-11T18:55:06.786Z,14.30
2019-04-11T18:57:35.394Z,14.63
2019-04-11T19:00:07.966Z,13.87
2019-04-11T19:02:35.340Z,14.57
2019-04-11T19:05:05.109Z,16.10
2019-04-11T19:07:33.588Z,14.43
2019-04-11T19:10:02.241Z,13.80
2019-04-11T19:12:30.670Z,13.80
2019-04-11T19:14:59.068Z,14.03
2019-04-11T19:17:30.173Z,14.03
2019-04-11T19:19:57.641Z,12.90
2019-04-11T19:22:37.088Z,13.77
2019-04-11T19:24:56.609Z,14.43
2019-04-11T19:27:25.033Z,13.93
2019-04-11T19:29:55.600Z,13.00
2019-04-11T19:32:23.719Z,14.30
2019-04-11T19:34:52.151Z,13.80
2019-04-11T19:37:20.567Z,15.00
2019-04-11T19:39:49.161Z,13.60
2019-04-11T19:42:19.608Z,13.80
2019-04-11T19:44:49.653Z,13.47
2019-04-11T19:47:21.403Z,14.27
2019-04-11T19:49:48.237Z,13.87
2019-04-11T19:52:16.662Z,13.70
2019-04-11T19:54:45.177Z,13.50
2019-04-11T19:57:13.600Z,13.80
2019-04-11T19:59:42.022Z,14.10
2019-04-11T20:02:10.469Z,14.23
2019-04-11T20:04:38.913Z,14.30
2019-04-11T20:07:07.329Z,14.00
2019-04-11T20:09:36.124Z,12.90
2019-04-11T20:12:04.623Z,13.70
2019-04-11T20:14:34.922Z,14.67
2019-04-11T20:17:03.205Z,13.67
2019-04-11T20:19:31.622Z,14.47
2019-04-11T20:22:00.053Z,14.03
2019-04-11T20:24:28.698Z,13.90
2019-04-11T20:26:57.128Z,13.47
2019-04-11T20:29:25.543Z,14.27
2019-04-11T20:31:54.445Z,14.13
2019-04-11T20:34:27.759Z,13.90
2019-04-11T20:36:53.012Z,12.50
2019-04-11T20:39:21.792Z,12.97
2019-04-11T20:41:53.194Z,12.47
2019-04-11T20:44:20.343Z,12.50
2019-04-11T20:46:49.182Z,11.43
2019-04-11T20:49:17.599Z,11.83
2019-04-11T20:51:46.010Z,11.73
2019-04-11T20:54:14.667Z,12.10
2019-04-11T20:56:43.090Z,11.60
2019-04-11T20:59:11.494Z,12.03
2019-04-11T21:01:39.947Z,11.50
2019-04-11T21:04:08.363Z,10.63
2019-04-11T21:06:36.774Z,12.03
2019-04-11T21:09:08.935Z,11.03
2019-04-11T21:11:37.361Z,10.07
2019-04-11T21:14:05.778Z,10.33
2019-04-11T21:16:34.215Z,10.27
2019-04-11T21:19:02.703Z,10.67
2019-04-11T21:21:31.174Z,10.30
2019-04-11T21:24:00.459Z,8.43
2019-04-11T21:26:29.611Z,10.00
2019-04-11T21:28:58.971Z,8.50
2019-04-11T21:31:30.875Z,8.17
2019-04-11T21:33:58.170Z,8.27
2019-04-11T21:36:26.990Z,8.67
2019-04-11T21:38:55.546Z,7.53
2019-04-11T21:41:23.997Z,7.10
2019-04-11T21:43:52.410Z,6.50
2019-04-11T21:46:21.152Z,7.10
2019-04-11T21:48:49.664Z,6.70
2019-04-11T21:51:18.074Z,6.33
2019-04-11T21:53:46.707Z,6.90
2019-04-11T21:56:15.907Z,6.80
2019-04-11T21:58:45.253Z,6.63
2019-04-11T22:01:15.923Z,6.87
2019-04-11T22:03:45.374Z,6.33
2019-04-11T22:06:13.799Z,6.50
2019-04-11T22:08:42.278Z,6.63
2019-04-11T22:11:10.781Z,6.40
2019-04-11T22:13:40.344Z,6.33
2019-04-11T22:16:13.463Z,6.10
2019-04-11T22:18:39.903Z,5.90
2019-04-11T22:21:08.325Z,6.13
2019-04-11T22:23:48.132Z,6.37
2019-04-11T22:26:07.022Z,5.97
2019-04-11T22:28:35.455Z,5.80
2019-04-11T22:31:03.879Z,5.90
2019-04-11T22:33:42.757Z,6.07
2019-04-11T22:36:11.265Z,5.60
2019-04-11T22:38:39.674Z,6.17
2019-04-11T22:41:08.105Z,5.80
2019-04-11T22:43:38.126Z,5.60
2019-04-11T22:46:08.061Z,5.70
2019-04-11T22:48:39.007Z,5.70
2019-04-11T22:51:08.876Z,5.93
2019-04-11T22:53:37.570Z,6.07
2019-04-11T22:56:05.991Z,6.17
2019-04-11T22:58:34.391Z,5.43
2019-04-11T23:01:03.014Z,5.73
2019-04-11T23:03:35.814Z,5.70
2019-04-11T23:06:04.226Z,5.50
2019-04-11T23:08:32.774Z,5.90
2019-04-11T23:11:01.190Z,5.17
2019-04-11T23:13:47.488Z,5.57
2019-04-11T23:16:15.909Z,5.37
2019-04-11T23:18:44.903Z,5.63
2019-04-11T23:21:14.381Z,5.87
2019-04-11T23:23:43.376Z,5.87
2019-04-11T23:26:11.778Z,5.60
2019-04-11T23:28:40.239Z,5.50
2019-04-11T23:31:08.642Z,5.83
2019-04-11T23:33:37.050Z,5.93
2019-04-11T23:36:05.493Z,5.43
2019-04-11T23:38:33.914Z,5.50
2019-04-11T23:41:02.333Z,5.67
2019-04-11T23:43:30.818Z,5.53
2019-04-11T23:45:59.718Z,5.90
2019-04-11T23:52:11.259Z,5.57
2019-04-11T23:54:42.598Z,5.83
2019-04-11T23:57:11.010Z,5.80
2019-04-11T23:59:39.466Z,5.63
